Time;durP1;ratioP1;P1;durP2;ratioP2;P2;SDS_P1;SDS_P2;PMS_P1;PMS_P2;Temp;Humidity;BMP_temperature;BMP_pressure;BME280_temperature;BME280_humidity;BME280_pressure;Samples;Min_cycle;Max_cycle;Signal;HPM_P1;HPM_P2
2022/08/24 00:00:22;;;;;;;4.60;4.10;;;19.90;99.90;;;;;;5013909;28;20480;-46
2022/08/24 00:02:49;;;;;;;6.33;4.77;;;19.90;99.90;;;;;;5014051;28;20525;-46
2022/08/24 00:05:20;;;;;;;5.53;3.90;;;19.90;99.90;;;;;;5014113;28;20485;-46
2022/08/24 00:07:47;;;;;;;9.00;4.17;;;19.80;99.90;;;;;;5014204;28;20921;-46
2022/08/24 00:10:13;;;;;;;7.20;4.50;;;19.80;99.90;;;;;;5013730;28;20476;-47
2022/08/24 00:12:40;;;;;;;7.13;3.87;;;19.80;99.90;;;;;;5014004;28;20453;-46
2022/08/24 00:15:10;;;;;;;8.13;4.90;;;20.30;99.90;;;;;;5013450;28;20461;-46
2022/08/24 00:17:37;;;;;;;7.23;4.60;;;19.70;99.90;;;;;;5013524;28;20440;-46
2022/08/24 00:20:05;;;;;;;5.67;3.77;;;19.80;99.90;;;;;;5013686;28;20873;-47
2022/08/24 00:22:33;;;;;;;5.97;4.30;;;19.70;99.90;;;;;;5013707;28;20424;-46
2022/08/24 00:24:59;;;;;;;5.23;4.70;;;19.50;99.90;;;;;;5013626;28;20479;-46
2022/08/24 00:27:26;;;;;;;7.47;4.67;;;19.70;99.90;;;;;;5013674;28;20437;-46
2022/08/24 00:29:54;;;;;;;6.87;4.70;;;19.80;99.90;;;;;;5013254;28;20496;-47
2022/08/24 00:32:21;;;;;;;8.93;5.47;;;19.90;99.90;;;;;;5012357;28;20452;-46
2022/08/24 00:34:47;;;;;;;8.17;4.50;;;19.60;99.90;;;;;;5013659;28;20495;-46
2022/08/24 00:37:14;;;;;;;8.57;4.43;;;19.60;99.90;;;;;;5012429;28;20936;-46
2022/08/24 00:39:42;;;;;;;7.00;4.50;;;19.40;99.90;;;;;;5011909;28;20504;-46
2022/08/24 00:42:08;;;;;;;6.93;4.67;;;19.50;99.90;;;;;;5012133;28;20463;-45
2022/08/24 00:44:35;;;;;;;6.67;4.80;;;19.60;99.90;;;;;;5013192;28;20459;-46
2022/08/24 00:47:05;;;;;;;5.80;5.20;;;19.80;99.90;;;;;;5013415;28;20927;-46
2022/08/24 00:49:36;;;;;;;10.43;5.03;;;19.30;99.90;;;;;;5012815;28;20443;-46
2022/08/24 00:52:09;;;;;;;7.50;5.30;;;19.50;99.90;;;;;;5013194;28;20432;-46
2022/08/24 00:54:39;;;;;;;5.70;4.03;;;19.50;99.90;;;;;;5011828;28;20471;-46
2022/08/24 00:57:10;;;;;;;8.23;5.20;;;19.30;99.90;;;;;;5011965;28;20478;-47
2022/08/24 00:59:41;;;;;;;8.20;5.83;;;19.40;99.90;;;;;;5012675;28;20484;-46
2022/08/24 01:02:11;;;;;;;8.83;5.43;;;19.40;99.90;;;;;;5011777;28;20563;-47
2022/08/24 01:04:43;;;;;;;7.40;5.70;;;19.40;99.90;;;;;;5012944;28;20473;-47
2022/08/24 01:07:09;;;;;;;7.50;5.70;;;19.40;99.90;;;;;;5011803;28;20493;-47
2022/08/24 01:09:36;;;;;;;10.97;4.60;;;19.40;99.90;;;;;;5012472;28;20996;-46
2022/08/24 01:12:03;;;;;;;6.13;4.70;;;19.40;99.90;;;;;;5011523;28;20452;-47
2022/08/24 01:14:31;;;;;;;7.33;5.30;;;19.40;99.90;;;;;;5011591;28;20476;-46
2022/08/24 01:19:45;;;;;;;5.87;5.20;;;19.30;99.90;;;;;;5012361;28;20980;-47
2022/08/24 01:22:33;;;;;;;7.20;5.50;;;19.30;99.90;;;;;;5011311;28;20544;-46
2022/08/24 01:25:01;;;;;;;10.23;5.60;;;19.10;99.90;;;;;;5012595;28;20855;-46
2022/08/24 01:27:28;;;;;;;9.00;5.40;;;19.30;99.90;;;;;;5012313;28;20490;-46
2022/08/24 01:29:57;;;;;;;5.90;4.67;;;19.50;99.90;;;;;;5012276;28;20451;-47
2022/08/24 01:32:26;;;;;;;10.53;5.20;;;19.30;99.90;;;;;;5011280;28;20824;-47
2022/08/24 01:34:53;;;;;;;7.10;5.57;;;19.10;99.90;;;;;;5012439;28;20455;-47
2022/08/24 01:37:20;;;;;;;10.33;6.00;;;19.30;99.90;;;;;;5012525;28;20486;-46
2022/08/24 01:39:49;;;;;;;7.33;5.30;;;18.80;99.90;;;;;;5011961;28;20481;-48
2022/08/24 01:42:17;;;;;;;8.77;6.20;;;18.90;99.90;;;;;;5012342;28;20439;-47
2022/08/24 01:44:46;;;;;;;7.00;6.00;;;19.20;99.90;;;;;;5011016;28;20483;-47
2022/08/24 01:47:16;;;;;;;11.77;6.47;;;19.20;99.90;;;;;;5010880;28;20886;-47
2022/08/24 01:49:46;;;;;;;9.97;6.60;;;18.80;99.90;;;;;;5010750;28;20453;-47
2022/08/24 01:52:19;;;;;;;13.10;6.77;;;19.20;99.90;;;;;;5010963;28;20452;-47
2022/08/24 01:54:45;;;;;;;11.90;6.40;;;19.20;99.90;;;;;;5012191;28;20488;-47
2022/08/24 01:57:13;;;;;;;10.30;7.40;;;19.20;99.90;;;;;;5010761;28;20445;-47
2022/08/24 01:59:42;;;;;;;7.60;6.90;;;19.30;99.90;;;;;;5010343;28;20475;-47
2022/08/24 02:02:13;;;;;;;10.17;7.53;;;19.40;99.90;;;;;;5012301;28;20449;-46
2022/08/24 02:04:40;;;;;;;12.50;7.23;;;19.40;99.90;;;;;;5010735;28;20480;-46
2022/08/24 02:07:08;;;;;;;10.40;7.17;;;19.30;99.90;;;;;;5010691;28;20999;-47
2022/08/24 02:09:34;;;;;;;11.03;8.30;;;19.50;99.90;;;;;;5011649;28;20528;-47
2022/08/24 02:12:01;;;;;;;11.00;8.53;;;19.50;99.90;;;;;;5011894;28;20457;-46
2022/08/24 02:14:35;;;;;;;16.60;10.20;;;19.50;99.90;;;;;;5011900;28;20502;-47
2022/08/24 02:17:04;;;;;;;21.17;10.93;;;19.50;99.90;;;;;;5012020;28;20440;-47
2022/08/24 02:19:31;;;;;;;14.17;10.27;;;19.40;99.90;;;;;;5010127;28;20464;-47
2022/08/24 02:21:59;;;;;;;16.70;11.30;;;19.30;99.90;;;;;;5010496;28;21025;-46
2022/08/24 02:24:26;;;;;;;16.47;10.90;;;19.50;99.90;;;;;;5010437;28;20521;-47
2022/08/24 02:26:54;;;;;;;21.30;14.57;;;19.50;99.90;;;;;;5010315;28;20448;-47
2022/08/24 02:29:20;;;;;;;20.57;12.03;;;19.50;99.90;;;;;;5009998;28;20467;-47
2022/08/24 02:31:48;;;;;;;22.60;12.77;;;19.30;99.90;;;;;;5010668;28;20460;-48
2022/08/24 02:34:17;;;;;;;21.90;13.50;;;19.60;99.90;;;;;;5010394;28;20560;-47
2022/08/24 02:36:43;;;;;;;20.83;12.47;;;19.50;99.90;;;;;;5010460;28;20480;-47
2022/08/24 02:39:11;;;;;;;23.23;13.60;;;19.50;99.90;;;;;;5012133;28;20439;-48
2022/08/24 02:41:38;;;;;;;17.30;12.33;;;19.50;99.90;;;;;;5047327;28;20484;-47
2022/08/24 02:44:05;;;;;;;22.93;13.23;;;19.20;99.90;;;;;;5047528;28;20460;-47
2022/08/24 02:46:33;;;;;;;18.10;12.10;;;19.40;99.90;;;;;;5014657;28;20578;-46
2022/08/24 02:49:01;;;;;;;18.20;13.50;;;19.40;99.90;;;;;;5015299;28;20440;-47
2022/08/24 02:51:32;;;;;;;21.40;13.53;;;19.50;99.90;;;;;;5015602;28;20441;-46
2022/08/24 02:54:00;;;;;;;18.20;13.60;;;19.30;99.90;;;;;;5014233;28;20470;-48
2022/08/24 02:56:28;;;;;;;22.20;13.73;;;19.10;99.90;;;;;;5014335;28;20452;-47
2022/08/24 02:58:55;;;;;;;17.20;13.00;;;19.40;99.90;;;;;;5015211;28;20980;-47
2022/08/24 03:01:22;;;;;;;20.47;13.20;;;19.30;99.90;;;;;;5014729;28;20480;-46
2022/08/24 03:03:50;;;;;;;25.67;15.13;;;19.30;99.90;;;;;;5014194;28;20470;-48
2022/08/24 03:06:17;;;;;;;24.77;15.93;;;19.30;99.90;;;;;;5014016;28;20554;-47
2022/08/24 03:08:45;;;;;;;21.23;15.00;;;19.20;99.90;;;;;;5013695;28;20451;-46
2022/08/24 03:11:13;;;;;;;24.93;15.53;;;19.00;99.90;;;;;;5013926;28;20451;-46
2022/08/24 03:13:39;;;;;;;21.07;15.73;;;19.40;99.90;;;;;;5013730;28;20501;-47
2022/08/24 03:16:07;;;;;;;17.90;15.47;;;19.20;99.90;;;;;;5013724;28;20480;-47
2022/08/24 03:18:36;;;;;;;21.43;17.50;;;19.00;99.90;;;;;;5013350;28;20781;-47
2022/08/24 03:21:03;;;;;;;20.70;15.40;;;19.20;99.90;;;;;;5013494;28;20495;-47
2022/08/24 03:23:33;;;;;;;19.87;16.27;;;19.10;99.90;;;;;;5013228;28;20456;-47
2022/08/24 03:26:01;;;;;;;19.90;17.80;;;19.20;99.90;;;;;;5013511;28;21019;-47
2022/08/24 03:28:29;;;;;;;24.90;19.60;;;19.20;99.90;;;;;;5014466;28;20465;-46
2022/08/24 03:30:56;;;;;;;21.30;17.43;;;19.20;99.90;;;;;;5013201;28;20483;-46
2022/08/24 03:33:24;;;;;;;20.20;17.20;;;19.20;99.90;;;;;;5013252;28;20444;-48
2022/08/24 03:35:52;;;;;;;19.90;16.80;;;19.00;99.90;;;;;;5013399;28;20452;-45
2022/08/24 03:38:21;;;;;;;20.83;14.43;;;19.10;99.90;;;;;;5013470;28;20816;-47
2022/08/24 03:40:48;;;;;;;23.73;15.23;;;19.00;99.90;;;;;;5013076;28;20551;-48
2022/08/24 03:45:58;;;;;;;19.63;14.73;;;19.10;99.90;;;;;;5012262;28;20856;-46
2022/08/24 03:48:24;;;;;;;20.17;14.90;;;19.00;99.90;;;;;;5012875;28;20454;-47
2022/08/24 03:50:51;;;;;;;24.60;15.30;;;19.00;99.90;;;;;;5014342;28;20800;-46
2022/08/24 03:53:18;;;;;;;18.03;16.13;;;19.00;99.90;;;;;;5013079;28;20508;-46
2022/08/24 03:55:45;;;;;;;16.50;12.47;;;19.00;99.90;;;;;;5013576;28;20456;-47
2022/08/24 03:58:12;;;;;;;17.20;15.47;;;19.10;99.90;;;;;;5013144;28;20486;-46
2022/08/24 04:00:41;;;;;;;19.97;14.90;;;19.00;99.90;;;;;;5012620;28;20561;-46
2022/08/24 04:03:11;;;;;;;20.87;15.70;;;18.90;99.90;;;;;;5013152;28;20925;-47
2022/08/24 04:05:39;;;;;;;15.90;13.70;;;19.00;99.90;;;;;;5013229;28;20464;-46
2022/08/24 04:08:06;;;;;;;19.93;15.00;;;19.30;99.90;;;;;;5013321;28;20584;-46
2022/08/24 04:10:33;;;;;;;21.17;14.57;;;19.00;99.90;;;;;;5012955;28;21001;-47
2022/08/24 04:13:01;;;;;;;19.10;14.37;;;18.90;99.90;;;;;;5014175;28;20880;-47
2022/08/24 04:15:27;;;;;;;20.50;14.97;;;18.90;99.90;;;;;;5012722;28;20465;-46
2022/08/24 04:17:56;;;;;;;15.50;12.93;;;19.50;99.90;;;;;;5012803;28;20459;-46
2022/08/24 04:20:25;;;;;;;16.47;14.67;;;19.00;99.90;;;;;;5012225;28;20480;-47
2022/08/24 04:22:52;;;;;;;15.70;14.10;;;18.70;99.90;;;;;;5012505;28;20487;-46
2022/08/24 04:25:19;;;;;;;16.77;14.70;;;18.90;99.90;;;;;;5012553;28;20484;-49
2022/08/24 04:27:45;;;;;;;23.43;14.30;;;18.90;99.90;;;;;;5012399;28;20559;-49
2022/08/24 04:30:13;;;;;;;22.67;15.27;;;19.00;99.90;;;;;;5011888;28;20531;-46
2022/08/24 04:33:07;;;;;;;21.20;15.10;;;19.00;99.90;;;;;;5012460;28;20500;-48
2022/08/24 04:35:38;;;;;;;19.63;14.73;;;18.50;99.90;;;;;;5012221;28;20852;-47
2022/08/24 04:38:04;;;;;;;17.53;14.40;;;19.00;99.90;;;;;;5013453;28;20963;-47
2022/08/24 04:40:31;;;;;;;21.60;13.30;;;19.20;99.90;;;;;;5011600;28;20502;-47
2022/08/24 04:42:58;;;;;;;17.50;15.00;;;18.80;99.90;;;;;;5013695;28;20451;-48
2022/08/24 04:45:27;;;;;;;15.17;13.77;;;18.90;99.90;;;;;;5011952;28;20467;-46
2022/08/24 04:47:54;;;;;;;20.90;13.80;;;18.80;99.90;;;;;;5012081;28;20456;-48
2022/08/24 04:50:23;;;;;;;20.00;14.87;;;19.10;99.90;;;;;;5011553;28;20953;-47
2022/08/24 04:52:51;;;;;;;15.50;13.83;;;18.60;99.90;;;;;;5013117;28;20429;-47
2022/08/24 04:55:18;;;;;;;14.97;13.47;;;19.00;99.90;;;;;;5011537;28;20510;-48
2022/08/24 04:57:45;;;;;;;15.53;13.83;;;18.90;99.90;;;;;;5011744;28;20567;-47
2022/08/24 05:00:13;;;;;;;14.33;12.73;;;19.30;99.90;;;;;;5011312;28;20455;-47
2022/08/24 05:02:43;;;;;;;15.00;12.33;;;19.10;99.90;;;;;;5011012;28;20544;-48
2022/08/24 05:05:11;;;;;;;14.70;11.47;;;19.20;99.90;;;;;;5011509;28;20479;-49
2022/08/24 05:07:39;;;;;;;15.60;11.90;;;19.30;99.90;;;;;;5012488;28;20523;-47
2022/08/24 05:10:07;;;;;;;17.70;13.97;;;19.20;99.90;;;;;;5011059;28;20463;-47
2022/08/24 05:12:33;;;;;;;17.47;13.77;;;19.20;99.90;;;;;;5011015;28;21016;-47
2022/08/24 05:15:04;;;;;;;16.90;13.33;;;19.10;99.90;;;;;;5011400;28;20478;-47
2022/08/24 05:17:39;;;;;;;17.00;12.40;;;19.30;99.90;;;;;;5010884;28;20457;-48
2022/08/24 05:20:07;;;;;;;20.30;12.80;;;19.30;99.90;;;;;;5010591;28;20872;-48
2022/08/24 05:22:34;;;;;;;16.40;13.77;;;19.20;99.90;;;;;;5011053;28;20481;-48
2022/08/24 05:25:04;;;;;;;15.27;13.50;;;19.30;99.90;;;;;;5010998;28;20941;-47
2022/08/24 05:27:32;;;;;;;16.33;13.07;;;19.50;99.90;;;;;;5010733;28;20445;-48
2022/08/24 05:29:59;;;;;;;20.67;13.87;;;19.80;99.90;;;;;;5010445;28;20540;-47
2022/08/24 05:32:26;;;;;;;15.37;13.17;;;19.40;99.90;;;;;;5011705;28;20953;-47
2022/08/24 05:34:53;;;;;;;15.40;13.40;;;19.70;99.90;;;;;;5010965;28;20465;-47
2022/08/24 05:37:20;;;;;;;17.60;13.20;;;19.70;99.90;;;;;;5010626;28;20580;-49
2022/08/24 05:40:05;;;;;;;14.67;11.27;;;19.60;99.90;;;;;;5010337;28;20463;-48
2022/08/24 05:42:34;;;;;;;13.10;11.70;;;20.00;99.90;;;;;;5009852;28;20483;-47
2022/08/24 05:45:02;;;;;;;13.80;12.30;;;19.80;99.90;;;;;;5010246;28;20475;-47
2022/08/24 05:47:30;;;;;;;14.43;11.57;;;19.90;99.90;;;;;;5009758;28;20544;-49
2022/08/24 05:50:01;;;;;;;13.53;10.57;;;20.00;99.90;;;;;;5010222;28;20548;-48
2022/08/24 05:52:29;;;;;;;14.73;11.80;;;20.00;99.90;;;;;;5010407;28;20454;-47
2022/08/24 05:54:58;;;;;;;15.50;12.67;;;20.10;99.90;;;;;;5010109;28;20972;-48
2022/08/24 05:57:32;;;;;;;16.57;12.93;;;20.10;99.90;;;;;;5010565;28;20464;-48
2022/08/24 06:00:11;;;;;;;14.73;11.67;;;20.20;99.90;;;;;;5010723;28;20834;-47
2022/08/24 06:02:42;;;;;;;16.57;12.63;;;20.00;99.90;;;;;;5011331;28;20509;-49
2022/08/24 06:05:10;;;;;;;13.33;11.20;;;20.20;99.90;;;;;;5010365;28;21012;-47
2022/08/24 06:07:36;;;;;;;13.57;11.37;;;20.30;99.90;;;;;;5009857;28;20457;-47
2022/08/24 06:10:03;;;;;;;12.10;10.90;;;20.40;99.90;;;;;;5010354;28;20445;-49
2022/08/24 06:12:32;;;;;;;14.37;11.60;;;20.50;99.90;;;;;;5010453;28;20525;-49
2022/08/24 06:14:59;;;;;;;13.17;10.70;;;20.60;99.90;;;;;;5009055;28;20474;-48
2022/08/24 06:17:25;;;;;;;12.53;10.93;;;20.50;99.90;;;;;;5010186;28;20481;-47
2022/08/24 06:19:52;;;;;;;14.53;11.93;;;20.90;99.90;;;;;;5009837;28;20455;-48
2022/08/24 06:22:19;;;;;;;14.90;13.40;;;20.90;99.90;;;;;;5011449;28;20497;-48
2022/08/24 06:27:32;;;;;;;16.20;14.17;;;20.80;99.90;;;;;;5010375;28;20453;-48
2022/08/24 06:30:01;;;;;;;15.30;10.73;;;20.90;99.90;;;;;;5011042;28;20454;-48
2022/08/24 06:32:47;;;;;;;17.37;13.00;;;20.80;99.90;;;;;;5011555;28;20430;-48
2022/08/24 06:35:24;;;;;;;15.30;13.53;;;20.90;99.90;;;;;;5009667;28;20824;-48
2022/08/24 06:37:50;;;;;;;14.33;12.83;;;21.30;99.90;;;;;;5009679;28;20556;-48
2022/08/24 06:40:19;;;;;;;15.80;12.30;;;20.90;99.90;;;;;;5009851;28;20459;-49
2022/08/24 06:42:47;;;;;;;15.20;11.57;;;21.00;99.90;;;;;;5010669;28;20633;-49
2022/08/24 06:45:43;;;;;;;13.77;11.33;;;20.90;99.90;;;;;;5010256;28;20451;-46
2022/08/24 06:48:11;;;;;;;18.87;12.63;;;20.90;99.90;;;;;;5010021;28;20796;-47
2022/08/24 06:50:39;;;;;;;16.43;11.73;;;21.10;99.90;;;;;;5010187;28;20450;-47
2022/08/24 06:53:06;;;;;;;13.40;11.50;;;21.00;99.90;;;;;;5010123;28;20450;-48
2022/08/24 06:55:33;;;;;;;15.50;12.40;;;21.10;99.90;;;;;;5009658;28;20494;-49
2022/08/24 06:58:01;;;;;;;17.10;12.17;;;20.90;99.90;;;;;;5009662;28;20570;-48
2022/08/24 07:00:29;;;;;;;14.53;11.33;;;21.20;99.90;;;;;;5009747;28;20466;-48
2022/08/24 07:02:56;;;;;;;15.00;11.80;;;21.20;99.90;;;;;;5009959;28;20478;-49
2022/08/24 07:05:24;;;;;;;11.03;9.57;;;21.30;99.90;;;;;;5009592;28;20479;-46
2022/08/24 07:08:15;;;;;;;14.00;9.67;;;21.30;99.90;;;;;;5009873;28;20454;-47
2022/08/24 07:10:42;;;;;;;13.50;9.77;;;21.30;99.90;;;;;;5009734;28;20454;-47
2022/08/24 07:13:11;;;;;;;14.20;9.67;;;21.30;99.90;;;;;;5010372;28;20466;-48
2022/08/24 07:15:38;;;;;;;10.80;8.47;;;21.40;99.90;;;;;;5009483;28;20821;-48
2022/08/24 07:18:12;;;;;;;10.00;8.90;;;21.50;99.90;;;;;;5009825;28;20666;-47
2022/08/24 07:20:42;;;;;;;19.10;12.30;;;21.80;99.90;;;;;;5009247;28;20537;-48
2022/08/24 07:23:17;;;;;;;16.80;11.83;;;21.70;99.90;;;;;;5009181;28;21030;-48
2022/08/24 07:25:44;;;;;;;18.07;12.03;;;21.80;99.90;;;;;;5012307;28;20474;-48
2022/08/24 07:28:13;;;;;;;21.10;13.10;;;21.90;99.90;;;;;;5012995;28;20482;-47
2022/08/24 07:30:43;;;;;;;15.50;11.70;;;22.10;99.90;;;;;;5012840;28;20514;-48
2022/08/24 07:33:12;;;;;;;18.13;12.80;;;21.90;99.90;;;;;;5013284;28;20444;-47
2022/08/24 07:35:40;;;;;;;20.20;12.40;;;22.10;99.90;;;;;;5013152;28;20579;-47
2022/08/24 07:38:08;;;;;;;23.40;13.43;;;21.90;99.90;;;;;;5013297;28;20461;-48
2022/08/24 07:40:35;;;;;;;18.63;12.93;;;21.90;99.90;;;;;;5012726;28;20455;-48
2022/08/24 07:43:02;;;;;;;20.60;13.50;;;22.00;99.90;;;;;;5014177;28;21008;-47
2022/08/24 07:45:32;;;;;;;15.70;12.53;;;22.10;99.90;;;;;;5012888;28;20472;-48
2022/08/24 07:48:01;;;;;;;19.87;14.03;;;22.00;99.90;;;;;;5012970;28;20455;-47
2022/08/24 07:50:38;;;;;;;23.30;12.90;;;22.20;99.90;;;;;;5012409;28;20827;-49
2022/08/24 07:53:05;;;;;;;17.50;13.10;;;22.50;99.90;;;;;;5012630;28;20454;-48
2022/08/24 07:55:33;;;;;;;17.47;12.37;;;22.60;99.90;;;;;;5012686;28;20472;-50
2022/08/24 07:58:00;;;;;;;18.87;13.80;;;22.70;99.90;;;;;;5012531;28;20453;-47
2022/08/24 08:00:26;;;;;;;19.90;14.23;;;22.80;99.90;;;;;;5012520;28;20971;-49
2022/08/24 08:03:01;;;;;;;17.10;13.57;;;23.10;99.90;;;;;;5012369;28;20477;-49
2022/08/24 08:05:29;;;;;;;17.93;14.53;;;22.80;99.90;;;;;;5012577;28;20477;-48
2022/08/24 08:07:56;;;;;;;19.50;13.37;;;22.80;99.90;;;;;;5012643;28;20484;-48
2022/08/24 08:10:24;;;;;;;21.77;14.00;;;22.90;99.90;;;;;;5012516;28;20995;-48
2022/08/24 08:12:52;;;;;;;16.93;12.80;;;23.00;99.90;;;;;;5012184;28;20889;-47
2022/08/24 08:15:19;;;;;;;15.60;12.63;;;23.00;99.90;;;;;;5012449;28;20473;-49
2022/08/24 08:17:54;;;;;;;18.27;14.60;;;23.10;99.90;;;;;;5012595;28;20847;-47
2022/08/24 08:20:22;;;;;;;15.97;12.63;;;23.10;99.90;;;;;;5011619;28;20461;-48
2022/08/24 08:25:54;;;;;;;15.43;12.60;;;23.30;99.90;;;;;;5012465;28;20439;-48
2022/08/24 08:28:32;;;;;;;14.80;11.97;;;23.40;99.90;;;;;;5011558;28;20577;-48
2022/08/24 08:30:58;;;;;;;16.17;13.20;;;23.40;99.90;;;;;;5012040;28;20530;-47
2022/08/24 08:33:25;;;;;;;17.63;14.20;;;23.00;99.90;;;;;;5012201;28;20459;-49
2022/08/24 08:36:02;;;;;;;21.50;14.73;;;23.40;99.90;;;;;;5011961;28;20517;-48
2022/08/24 08:38:29;;;;;;;16.93;13.10;;;23.40;99.90;;;;;;5011010;28;20496;-47
2022/08/24 08:41:14;;;;;;;14.63;11.27;;;23.40;99.90;;;;;;5012349;28;20452;-46
2022/08/24 08:44:00;;;;;;;15.13;11.13;;;23.50;99.90;;;;;;5011590;28;20577;-48
2022/08/24 08:46:41;;;;;;;16.57;12.53;;;23.70;99.90;;;;;;5013288;28;20942;-47
2022/08/24 08:49:34;;;;;;;20.17;12.43;;;23.50;99.90;;;;;;5011371;28;20447;-49
2022/08/24 08:52:25;;;;;;;14.33;11.73;;;23.90;99.90;;;;;;5012078;28;20505;-48
2022/08/24 08:55:12;;;;;;;16.50;12.90;;;24.00;99.90;;;;;;5012279;28;21045;-48
2022/08/24 08:57:51;;;;;;;14.57;12.30;;;23.90;99.90;;;;;;5012090;28;20455;-47
2022/08/24 09:00:21;;;;;;;12.90;11.37;;;23.90;99.90;;;;;;5011833;28;20454;-47
2022/08/24 09:03:25;;;;;;;18.43;11.33;;;23.80;99.90;;;;;;5011783;28;20484;-48
2022/08/24 09:06:34;;;;;;;18.53;11.90;;;23.80;99.90;;;;;;4986077;28;20579;-47
2022/08/24 09:09:25;;;;;;;12.10;10.80;;;23.70;99.90;;;;;;5011108;28;20643;-46
2022/08/24 09:12:05;;;;;;;15.90;12.40;;;23.80;99.90;;;;;;5011489;28;20471;-48
2022/08/24 09:14:51;;;;;;;13.30;11.90;;;23.90;99.90;;;;;;5011589;28;20459;-49
2022/08/24 09:17:39;;;;;;;14.77;12.67;;;24.00;99.90;;;;;;5011374;28;20466;-48
2022/08/24 09:20:22;;;;;;;12.57;10.93;;;24.10;99.90;;;;;;5011221;28;20995;-48
2022/08/24 09:23:07;;;;;;;15.27;12.20;;;24.20;99.90;;;;;;5012158;28;21043;-47
2022/08/24 09:25:45;;;;;;;15.97;13.20;;;24.30;99.90;;;;;;5011049;28;20492;-48
2022/08/24 09:28:28;;;;;;;15.63;13.53;;;24.50;99.90;;;;;;5010938;28;20483;-47
2022/08/24 09:31:10;;;;;;;13.67;12.03;;;24.60;99.90;;;;;;5012298;28;20440;-47
2022/08/24 09:33:43;;;;;;;16.77;14.57;;;24.70;99.90;;;;;;5013253;28;20972;-49
2022/08/24 09:36:13;;;;;;;14.63;13.13;;;24.70;99.90;;;;;;5012594;28;20444;-48
2022/08/24 09:39:06;;;;;;;19.03;14.90;;;24.50;99.90;;;;;;5012265;28;20436;-48
2022/08/24 09:42:13;;;;;;;17.40;15.50;;;24.50;99.90;;;;;;5012182;28;20464;-49
2022/08/24 09:45:12;;;;;;;18.70;14.97;;;24.40;99.90;;;;;;5011584;28;20490;-47
2022/08/24 09:48:08;;;;;;;19.10;15.87;;;24.30;99.90;;;;;;5012290;28;20437;-48
2022/08/24 09:51:00;;;;;;;18.73;15.57;;;24.40;99.90;;;;;;4981757;28;20470;-47
2022/08/24 09:54:02;;;;;;;20.47;13.80;;;24.40;99.90;;;;;;5012339;28;20468;-48
2022/08/24 09:56:50;;;;;;;16.93;15.13;;;24.40;99.90;;;;;;5012337;28;20432;-47
2022/08/24 09:59:50;;;;;;;21.87;15.37;;;24.30;99.90;;;;;;5012216;28;20440;-48
2022/08/24 10:02:36;;;;;;;21.17;18.60;;;24.30;99.90;;;;;;5011714;28;20530;-47
2022/08/24 10:05:12;;;;;;;20.50;16.13;;;24.20;99.90;;;;;;5011712;28;20551;-48
2022/08/24 10:07:50;;;;;;;22.20;18.30;;;24.10;99.90;;;;;;5011595;28;20435;-46
2022/08/24 10:10:28;;;;;;;23.23;17.77;;;24.10;99.90;;;;;;5011373;28;20439;-48
2022/08/24 10:13:08;;;;;;;23.80;19.90;;;24.10;99.90;;;;;;5011885;28;20432;-49
2022/08/24 10:15:44;;;;;;;21.63;18.67;;;24.10;99.90;;;;;;5011240;28;20959;-48
2022/08/24 10:18:24;;;;;;;22.23;18.00;;;24.00;99.90;;;;;;5011718;28;20891;-48
2022/08/24 10:21:08;;;;;;;22.63;16.60;;;24.10;99.90;;;;;;5011512;28;20428;-46
2022/08/24 10:23:58;;;;;;;19.83;16.93;;;24.20;99.90;;;;;;5011560;28;20515;-46
2022/08/24 10:26:34;;;;;;;20.13;15.40;;;24.30;99.90;;;;;;4979534;28;20539;-47
2022/08/24 10:29:19;;;;;;;17.57;14.93;;;24.40;99.90;;;;;;5011776;28;20963;-47
2022/08/24 10:32:00;;;;;;;16.03;14.13;;;24.40;99.90;;;;;;5011537;28;20441;-47
2022/08/24 10:34:42;;;;;;;15.53;13.83;;;24.50;99.90;;;;;;5012564;28;20536;-48
2022/08/24 10:40:53;;;;;;;18.20;14.33;;;24.60;99.90;;;;;;4949959;28;20431;-47
2022/08/24 10:43:57;;;;;;;14.37;12.90;;;24.60;99.90;;;;;;4950393;29;20486;-48
2022/08/24 10:46:40;;;;;;;20.37;13.93;;;24.60;99.90;;;;;;4949343;28;20546;-49
2022/08/24 10:49:57;;;;;;;12.67;11.37;;;24.50;99.90;;;;;;4950778;29;20434;-47
2022/08/24 10:52:56;;;;;;;13.27;12.03;;;24.40;99.90;;;;;;4951126;29;20472;-46
2022/08/24 10:55:27;;;;;;;12.53;11.03;;;24.30;99.90;;;;;;4950899;29;20462;-48
2022/08/24 10:58:07;;;;;;;14.20;11.83;;;24.30;99.90;;;;;;4950560;29;20507;-47
2022/08/24 11:00:34;;;;;;;14.97;12.30;;;23.90;99.90;;;;;;4951541;28;20621;-47
2022/08/24 11:03:09;;;;;;;15.20;11.70;;;24.50;99.90;;;;;;4937997;29;21022;-47
2022/08/24 11:05:41;;;;;;;14.80;13.10;;;24.50;99.90;;;;;;4953972;29;20462;-48
2022/08/24 11:08:12;;;;;;;16.33;12.03;;;24.70;99.90;;;;;;4954734;29;20538;-48
2022/08/24 11:10:40;;;;;;;13.37;11.80;;;24.70;99.90;;;;;;4960053;28;20444;-47
2022/08/24 11:13:22;;;;;;;14.63;12.10;;;24.70;99.90;;;;;;5014884;28;20427;-46
2022/08/24 11:15:52;;;;;;;13.20;11.90;;;24.80;99.90;;;;;;5013366;28;20454;-49
2022/08/24 11:18:21;;;;;;;12.63;11.40;;;24.80;99.90;;;;;;5014967;28;21019;-49
2022/08/24 11:20:50;;;;;;;12.10;10.87;;;24.50;99.90;;;;;;5014835;28;20432;-48
2022/08/24 11:23:21;;;;;;;14.00;11.70;;;25.10;99.90;;;;;;5014255;28;20486;-47
2022/08/24 11:25:56;;;;;;;12.70;10.80;;;25.20;99.90;;;;;;5014581;28;20436;-49
2022/08/24 11:28:29;;;;;;;10.77;9.80;;;25.30;99.90;;;;;;5014666;28;20837;-50
2022/08/24 11:30:56;;;;;;;12.13;10.10;;;25.30;99.90;;;;;;5014761;28;20437;-48
2022/08/24 11:33:31;;;;;;;12.40;10.20;;;25.30;99.90;;;;;;5014543;28;20446;-47
2022/08/24 11:35:59;;;;;;;19.00;10.93;;;25.20;99.90;;;;;;5014310;28;20431;-48
2022/08/24 11:38:30;;;;;;;13.33;11.40;;;25.20;99.90;;;;;;5014487;28;20825;-48
2022/08/24 11:41:05;;;;;;;12.97;10.47;;;25.10;99.90;;;;;;5014343;28;20894;-47
2022/08/24 11:43:40;;;;;;;11.73;9.37;;;25.10;99.90;;;;;;5014010;28;20479;-47
2022/08/24 11:46:14;;;;;;;12.87;9.73;;;25.10;99.90;;;;;;5014183;28;20432;-47
2022/08/24 11:48:52;;;;;;;10.10;9.20;;;25.10;99.90;;;;;;5013736;28;20436;-49
2022/08/24 11:51:32;;;;;;;10.43;8.90;;;25.20;99.90;;;;;;5013841;28;20436;-47
2022/08/24 11:54:04;;;;;;;10.43;9.43;;;25.30;99.90;;;;;;5014184;28;20479;-47
2022/08/24 11:56:38;;;;;;;11.27;8.87;;;25.50;99.90;;;;;;5013916;28;20433;-48
2022/08/24 11:59:11;;;;;;;9.93;9.03;;;25.60;99.90;;;;;;5013444;28;20451;-48
2022/08/24 12:01:47;;;;;;;12.27;9.77;;;25.50;99.90;;;;;;5014141;28;20898;-48
2022/08/24 12:04:36;;;;;;;12.10;9.00;;;25.50;99.90;;;;;;5013358;28;20484;-48
2022/08/24 12:07:14;;;;;;;9.97;9.00;;;25.50;99.90;;;;;;5013848;28;20435;-48
2022/08/24 12:10:14;;;;;;;11.67;9.77;;;25.50;99.90;;;;;;5013564;28;20445;-49
2022/08/24 12:12:46;;;;;;;9.87;8.70;;;25.50;99.90;;;;;;5012473;28;20967;-48
2022/08/24 12:15:17;;;;;;;14.93;8.90;;;25.40;99.90;;;;;;5013682;28;20457;-49
2022/08/24 12:17:49;;;;;;;11.00;9.90;;;25.50;99.90;;;;;;5012146;28;20803;-48
2022/08/24 12:20:26;;;;;;;11.10;8.20;;;25.60;99.90;;;;;;5013401;28;20449;-48
2022/08/24 12:22:54;;;;;;;10.10;8.73;;;25.70;99.90;;;;;;5013680;28;20496;-48
2022/08/24 12:28:06;;;;;;;10.53;8.67;;;26.10;99.90;;;;;;5013435;28;20428;-48
2022/08/24 12:30:34;;;;;;;11.90;8.77;;;26.20;99.90;;;;;;5013099;28;20440;-48
2022/08/24 12:33:05;;;;;;;17.27;9.10;;;26.30;99.90;;;;;;5013907;28;20952;-47
2022/08/24 12:35:38;;;;;;;10.20;9.10;;;26.40;99.60;;;;;;5013226;28;20448;-48
2022/08/24 12:38:11;;;;;;;12.63;8.67;;;26.40;99.80;;;;;;5013327;28;20490;-47
2022/08/24 12:40:41;;;;;;;11.40;8.50;;;26.40;99.40;;;;;;5013145;28;20519;-49
2022/08/24 12:43:12;;;;;;;10.87;9.77;;;26.30;99.40;;;;;;5013092;28;20514;-49
2022/08/24 12:45:39;;;;;;;8.33;7.43;;;26.30;99.30;;;;;;5012743;28;20452;-48
2022/08/24 12:48:14;;;;;;;9.10;8.03;;;26.20;99.40;;;;;;5013192;28;20960;-48
2022/08/24 12:50:57;;;;;;;11.90;8.47;;;26.10;99.30;;;;;;5013113;28;20434;-48
2022/08/24 12:53:53;;;;;;;9.07;8.00;;;26.10;99.30;;;;;;5013190;28;20432;-48
2022/08/24 12:56:31;;;;;;;8.80;7.47;;;26.00;99.10;;;;;;5011938;28;20447;-48
2022/08/24 12:59:07;;;;;;;8.37;7.03;;;25.90;99.00;;;;;;5012639;28;20440;-49
2022/08/24 13:01:46;;;;;;;15.70;8.73;;;26.00;98.90;;;;;;5013482;28;20428;-49
2022/08/24 13:04:18;;;;;;;14.63;9.13;;;26.10;98.80;;;;;;5012236;28;20610;-47
2022/08/24 13:06:52;;;;;;;11.30;8.53;;;26.20;98.40;;;;;;5011865;28;20456;-49
2022/08/24 13:09:29;;;;;;;9.43;7.53;;;26.30;98.10;;;;;;5012586;28;20433;-49
2022/08/24 13:11:58;;;;;;;12.23;8.50;;;26.30;97.60;;;;;;5012356;28;20447;-48
2022/08/24 13:14:27;;;;;;;12.20;7.90;;;26.50;97.60;;;;;;5010953;28;20468;-48